createdAt,value
2022-11-16T00:08:57.825Z,0
2022-11-16T00:18:35.104Z,0
2022-11-16T00:28:11.880Z,0
2022-11-16T00:47:26.080Z,0
2022-11-16T00:57:03.016Z,0
2022-11-16T01:06:39.895Z,0
2022-11-16T01:16:17.004Z,0
2022-11-16T01:35:31.098Z,0
2022-11-16T01:45:08.707Z,0
2022-11-16T02:04:23.017Z,0
2022-11-16T02:13:59.720Z,0
2022-11-16T02:23:36.792Z,0
2022-11-16T02:33:13.524Z,0
2022-11-16T02:42:50.897Z,0
2022-11-16T02:52:27.281Z,0
2022-11-16T03:02:04.312Z,0
2022-11-16T03:11:41.593Z,0
2022-11-16T03:21:18.483Z,0
2022-11-16T03:30:55.662Z,0
2022-11-16T03:40:32.662Z,0
2022-11-16T03:50:09.515Z,0
2022-11-16T03:59:46.733Z,0
2022-11-16T04:18:59.798Z,0
2022-11-16T04:28:37.581Z,0
2022-11-16T04:38:13.965Z,0
2022-11-16T04:47:51.376Z,0
2022-11-16T04:57:28.586Z,0
2022-11-16T05:07:05.670Z,0
2022-11-16T05:16:42.806Z,0
2022-11-16T05:26:20.153Z,0
2022-11-16T05:35:56.865Z,0
2022-11-16T05:45:33.529Z,0
2022-11-16T05:55:10.333Z,0
2022-11-16T06:04:47.305Z,0
2022-11-16T06:14:24.592Z,0
2022-11-16T06:24:01.822Z,0
2022-11-16T06:33:38.355Z,0
2022-11-16T06:43:15.684Z,5.63
2022-11-16T06:52:52.407Z,11.25
2022-11-16T07:02:29.744Z,16.88
2022-11-16T07:31:21.364Z,33.75
2022-11-16T07:40:59.217Z,56.25
2022-11-16T08:00:15.286Z,67.5
2022-11-16T08:09:52.468Z,67.5
2022-11-16T08:19:29.595Z,78.75
2022-11-16T08:29:06.854Z,84.38
2022-11-16T08:48:21.227Z,101.25
2022-11-16T08:57:58.156Z,78.75
2022-11-16T09:07:35.263Z,84.38
2022-11-16T09:17:12.684Z,112.5
2022-11-16T09:26:50.112Z,106.88
2022-11-16T09:46:03.731Z,78.75
2022-11-16T09:55:40.774Z,129.38
2022-11-16T10:14:55.930Z,151.88
2022-11-16T10:24:33.185Z,123.75
2022-11-16T10:34:10.517Z,146.25
2022-11-16T10:43:47.714Z,129.38
2022-11-16T10:53:25.085Z,174.38
2022-11-16T11:03:03.101Z,168.75
2022-11-16T11:12:40.384Z,129.38
2022-11-16T11:22:16.752Z,112.5
2022-11-16T11:31:53.857Z,112.5
2022-11-16T11:41:30.881Z,101.25
2022-11-16T11:51:07.702Z,84.38
2022-11-16T12:00:44.714Z,84.38
2022-11-16T12:10:21.788Z,73.13
2022-11-16T12:19:58.463Z,50.63
2022-11-16T12:39:12.117Z,56.25
2022-11-16T12:48:49.177Z,45
2022-11-16T12:58:26.214Z,33.75
2022-11-16T13:08:03.509Z,45
2022-11-16T13:17:40.255Z,56.25
2022-11-16T13:27:17.672Z,50.63
2022-11-16T13:36:54.599Z,50.63
2022-11-16T13:46:54.608Z,33.75
2022-11-16T13:56:08.568Z,28.13
2022-11-16T14:44:14.902Z,45
2022-11-16T14:53:51.765Z,33.75
2022-11-16T15:03:29.170Z,39.38
2022-11-16T15:13:05.300Z,22.5
2022-11-16T15:22:42.102Z,16.88
2022-11-16T15:41:57.562Z,0
2022-11-16T15:51:31.114Z,0
2022-11-16T16:01:08.305Z,0
2022-11-16T16:10:45.543Z,0
2022-11-16T16:29:59.337Z,0
2022-11-16T16:39:36.217Z,0
2022-11-16T16:49:12.718Z,0
2022-11-16T17:08:25.970Z,0
2022-11-16T17:18:02.734Z,0
2022-11-16T17:27:39.767Z,0
2022-11-16T17:37:16.863Z,0
2022-11-16T17:46:53.883Z,0
2022-11-16T17:56:30.896Z,0
2022-11-16T18:06:07.966Z,0
2022-11-16T18:25:21.611Z,0
2022-11-16T18:34:58.356Z,0
2022-11-16T18:44:35.617Z,0
2022-11-16T18:54:12.521Z,0
2022-11-16T19:03:49.490Z,0
2022-11-16T19:13:26.167Z,0
2022-11-16T19:23:02.709Z,0
2022-11-16T19:32:39.919Z,0
2022-11-16T19:42:16.315Z,0
2022-11-16T19:51:53.682Z,0
2022-11-16T20:01:30.636Z,0
2022-11-16T20:20:44.408Z,0
2022-11-16T20:30:21.336Z,0
2022-11-16T20:39:58.369Z,0
2022-11-16T20:49:35.210Z,0
2022-11-16T20:59:12.159Z,0
2022-11-16T21:08:49.222Z,0
2022-11-16T21:18:30.474Z,0
2022-11-16T21:28:02.873Z,0
2022-11-16T21:37:39.748Z,0
2022-11-16T21:47:19.352Z,0
2022-11-16T21:56:53.845Z,0
2022-11-16T22:06:31.080Z,0
2022-11-16T22:16:07.816Z,0
2022-11-16T22:35:21.288Z,0
2022-11-16T22:44:58.479Z,0
2022-11-16T22:54:35.605Z,0
2022-11-16T23:04:12.814Z,0
2022-11-16T23:13:49.770Z,0
2022-11-16T23:23:26.978Z,0
2022-11-16T23:33:03.816Z,0
2022-11-16T23:52:16.997Z,0
